createdAt,value
2022-12-15T00:00:36.234Z,-0.74
2022-12-15T00:03:26.204Z,-0.82
2022-12-15T00:06:13.515Z,-0.81
2022-12-15T00:08:59.651Z,-0.83
2022-12-15T00:11:45.787Z,-0.89
2022-12-15T00:14:32.000Z,-0.88
2022-12-15T00:17:18.267Z,-1.09
2022-12-15T00:20:04.616Z,-1.06
2022-12-15T00:22:52.147Z,-1.01
2022-12-15T00:25:38.256Z,-1.06
2022-12-15T00:28:24.586Z,-1.21
2022-12-15T00:31:10.823Z,-1.02
2022-12-15T00:33:56.845Z,-0.91
2022-12-15T00:36:42.987Z,-1.19
2022-12-15T00:39:13.001Z,-0.96
2022-12-15T00:41:42.139Z,-1.15
2022-12-15T00:44:13.416Z,-1.27
2022-12-15T00:46:55.695Z,-1.18
2022-12-15T00:49:43.753Z,-1.26
2022-12-15T00:52:31.295Z,-1.34
2022-12-15T00:55:18.774Z,-1.43
2022-12-15T00:58:04.809Z,-1.44
2022-12-15T01:00:51.082Z,-1.47
2022-12-15T01:03:40.400Z,-1.35
2022-12-15T01:06:28.337Z,-1.35
2022-12-15T01:09:15.122Z,-1.25
2022-12-15T01:12:04.014Z,-1.15
2022-12-15T01:14:52.161Z,-1.03
2022-12-15T01:17:38.651Z,-1.22
2022-12-15T01:20:18.100Z,-1.26
2022-12-15T01:22:48.726Z,-1.35
2022-12-15T01:25:19.972Z,-1.21
2022-12-15T01:27:51.070Z,-1.51
2022-12-15T01:30:23.487Z,-1.32
2022-12-15T01:32:52.873Z,-1.28
2022-12-15T01:35:23.049Z,-1.36
2022-12-15T01:37:51.580Z,-1.30
2022-12-15T01:40:40.873Z,-1.48
2022-12-15T01:43:15.570Z,-1.34
2022-12-15T01:46:05.883Z,-1.34
2022-12-15T01:48:42.917Z,-1.38
2022-12-15T01:51:24.713Z,-1.38
2022-12-15T01:54:01.070Z,-1.40
2022-12-15T01:56:37.775Z,-1.40
2022-12-15T01:59:12.347Z,-1.34
2022-12-15T02:01:41.041Z,-1.48
2022-12-15T02:04:13.403Z,-1.48
2022-12-15T02:06:41.948Z,-1.59
2022-12-15T02:09:10.861Z,-1.85
2022-12-15T02:12:00.733Z,-1.58
2022-12-15T02:14:59.327Z,-1.48
2022-12-15T02:17:39.039Z,-1.38
2022-12-15T02:20:47.333Z,-1.31
2022-12-15T02:24:15.546Z,-1.25
2022-12-15T02:27:32.332Z,-1.31
2022-12-15T02:30:36.259Z,-1.40
2022-12-15T02:33:15.191Z,-1.35
2022-12-15T02:35:57.916Z,-1.25
2022-12-15T02:38:37.417Z,-1.23
2022-12-15T02:41:33.675Z,-1.15
2022-12-15T02:44:10.942Z,-1.08
2022-12-15T02:47:00.223Z,-1.28
2022-12-15T02:49:43.557Z,-1.40
2022-12-15T02:52:41.442Z,-1.45
2022-12-15T02:55:21.247Z,-1.59
2022-12-15T02:58:01.870Z,-1.42
2022-12-15T03:00:40.056Z,-1.53
2022-12-15T03:03:10.465Z,-1.53
2022-12-15T03:05:39.270Z,-1.36
2022-12-15T03:08:09.188Z,-1.43
2022-12-15T03:10:37.853Z,-1.28
2022-12-15T03:13:06.579Z,-1.26
2022-12-15T03:15:36.581Z,-1.13
2022-12-15T03:18:05.398Z,-1.05
2022-12-15T03:20:33.942Z,-1.36
2022-12-15T03:23:02.915Z,-1.31
2022-12-15T03:25:31.447Z,-1.27
2022-12-15T03:27:59.987Z,-1.21
2022-12-15T03:30:28.684Z,-1.10
2022-12-15T03:32:58.540Z,-1.24
2022-12-15T03:35:27.323Z,-1.16
2022-12-15T03:37:55.850Z,-1.19
2022-12-15T03:40:24.456Z,-1.16
2022-12-15T03:42:53.009Z,-1.18
2022-12-15T03:45:24.775Z,-1.05
2022-12-15T03:47:54.413Z,-1.14
2022-12-15T03:50:27.122Z,-0.94
2022-12-15T03:52:59.887Z,-0.93
2022-12-15T03:55:29.908Z,-0.94
2022-12-15T03:57:59.539Z,-1.02
2022-12-15T04:00:28.833Z,-1.00
2022-12-15T04:02:57.563Z,-0.92
2022-12-15T04:05:30.452Z,-1.00
2022-12-15T04:08:01.327Z,-0.94
2022-12-15T04:10:34.786Z,-0.92
2022-12-15T04:13:06.568Z,-0.81
2022-12-15T04:15:36.728Z,-1.02
2022-12-15T04:18:09.748Z,-0.79
2022-12-15T04:20:41.176Z,-0.93
2022-12-15T04:23:10.065Z,-0.88
2022-12-15T04:25:56.575Z,-0.94
2022-12-15T04:28:42.809Z,-0.95
2022-12-15T04:31:33.440Z,-0.93
2022-12-15T04:34:23.652Z,-0.89
2022-12-15T04:37:12.947Z,-0.87
2022-12-15T04:40:02.508Z,-0.98
2022-12-15T04:42:50.955Z,-1.04
2022-12-15T04:45:40.970Z,-1.22
2022-12-15T04:48:27.677Z,-1.31
2022-12-15T04:51:14.261Z,-1.13
2022-12-15T04:54:04.008Z,-1.34
2022-12-15T04:56:51.079Z,-1.32
2022-12-15T04:59:37.752Z,-1.20
2022-12-15T05:02:24.117Z,-1.21
2022-12-15T05:05:10.371Z,-1.15
2022-12-15T05:07:56.497Z,-1.06
2022-12-15T05:10:44.148Z,-1.05
2022-12-15T05:13:30.491Z,-1.04
2022-12-15T05:16:17.036Z,-1.12
2022-12-15T05:19:03.210Z,-1.27
2022-12-15T05:21:49.424Z,-1.39
2022-12-15T05:24:35.578Z,-1.34
2022-12-15T05:27:22.917Z,-1.45
2022-12-15T05:30:09.144Z,-1.42
2022-12-15T05:32:38.047Z,-1.42
2022-12-15T05:35:07.637Z,-1.35
2022-12-15T05:37:36.227Z,-1.27
2022-12-15T05:40:05.592Z,-1.27
2022-12-15T05:42:35.642Z,-1.33
2022-12-15T05:45:07.496Z,-1.43
2022-12-15T05:47:35.966Z,-1.49
2022-12-15T05:50:04.627Z,-1.54
2022-12-15T05:52:33.407Z,-1.38
2022-12-15T05:55:02.001Z,-1.29
2022-12-15T05:57:30.673Z,-1.31
2022-12-15T06:00:00.624Z,-1.21
2022-12-15T06:02:31.362Z,-1.21
2022-12-15T06:05:02.216Z,-1.08
2022-12-15T06:07:30.829Z,-1.12
2022-12-15T06:09:59.458Z,-1.12
2022-12-15T06:12:28.171Z,-0.91
2022-12-15T06:14:56.840Z,-0.88
2022-12-15T06:17:26.960Z,-0.92
2022-12-15T06:19:55.611Z,-1.01
2022-12-15T06:22:24.295Z,-0.86
2022-12-15T06:24:52.811Z,-0.89
2022-12-15T06:27:21.429Z,-0.86
2022-12-15T06:29:50.010Z,-0.79
2022-12-15T06:32:18.715Z,-0.84
2022-12-15T06:34:49.590Z,-1.05
2022-12-15T06:37:18.199Z,-0.98
2022-12-15T06:39:46.685Z,-1.08
2022-12-15T06:42:15.426Z,-1.29
2022-12-15T06:44:44.213Z,-1.22
2022-12-15T06:47:13.764Z,-1.16
2022-12-15T06:49:42.351Z,-0.93
2022-12-15T06:52:12.352Z,-0.79
2022-12-15T06:54:40.973Z,-0.79
2022-12-15T06:57:09.983Z,-0.92
2022-12-15T06:59:39.147Z,-1.17
2022-12-15T07:02:17.980Z,-1.01
2022-12-15T07:04:48.940Z,-0.75
2022-12-15T07:07:19.059Z,-1.17
2022-12-15T07:09:47.884Z,-0.96
2022-12-15T07:12:16.582Z,-0.99
2022-12-15T07:14:51.574Z,-1.00
2022-12-15T07:17:22.059Z,-1.12
2022-12-15T07:19:50.576Z,-1.27
2022-12-15T07:22:21.850Z,-1.24
2022-12-15T07:24:50.553Z,-1.35
2022-12-15T07:27:19.202Z,-1.26
2022-12-15T07:29:47.770Z,-1.21
2022-12-15T07:32:16.878Z,-1.04
2022-12-15T07:34:46.394Z,-0.98
2022-12-15T07:37:17.245Z,-0.81
2022-12-15T07:39:47.352Z,-0.92
2022-12-15T07:42:15.949Z,-1.30
2022-12-15T07:44:46.486Z,-1.08
2022-12-15T07:47:18.622Z,-0.87
2022-12-15T07:49:47.711Z,-0.83
2022-12-15T07:52:18.412Z,-0.96
2022-12-15T07:54:48.819Z,-1.09
2022-12-15T07:57:17.614Z,-0.59
2022-12-15T07:59:46.327Z,-0.54
2022-12-15T08:02:15.973Z,-0.30
2022-12-15T08:04:45.092Z,-0.51
2022-12-15T08:07:13.763Z,-0.75
2022-12-15T08:09:42.356Z,-0.62
2022-12-15T08:12:12.587Z,-0.39
2022-12-15T08:14:41.162Z,-0.71
2022-12-15T08:17:09.867Z,-0.59
2022-12-15T08:19:38.458Z,-0.14
2022-12-15T08:22:07.203Z,0.12
2022-12-15T08:24:35.806Z,0.29
2022-12-15T08:27:04.678Z,0.20
2022-12-15T08:29:52.111Z,0.24
2022-12-15T08:32:21.243Z,0.50
2022-12-15T08:34:50.216Z,0.46
2022-12-15T08:37:18.885Z,0.10
2022-12-15T08:39:48.024Z,0.09
2022-12-15T08:42:16.675Z,-0.15
2022-12-15T08:44:50.261Z,-0.17
2022-12-15T08:47:18.894Z,-0.47
2022-12-15T08:49:48.600Z,-0.33
2022-12-15T08:52:17.271Z,-0.57
2022-12-15T08:54:45.824Z,-0.34
2022-12-15T08:57:14.806Z,0.09
2022-12-15T08:59:43.570Z,-0.54
2022-12-15T09:02:14.269Z,0.15
2022-12-15T09:04:44.182Z,0.58
2022-12-15T09:07:13.645Z,0.72
2022-12-15T09:09:43.121Z,0.95
2022-12-15T09:12:14.130Z,0.92
2022-12-15T09:14:44.671Z,0.74
2022-12-15T09:17:14.691Z,0.82
2022-12-15T09:19:43.466Z,0.67
2022-12-15T09:22:12.149Z,0.40
2022-12-15T09:24:40.803Z,0.38
2022-12-15T09:27:10.167Z,0.46
2022-12-15T09:29:38.821Z,0.70
2022-12-15T09:32:13.904Z,0.93
2022-12-15T09:34:44.305Z,0.86
2022-12-15T09:37:13.305Z,0.82
2022-12-15T09:39:41.929Z,1.38
2022-12-15T09:42:26.096Z,1.19
2022-12-15T09:45:07.699Z,1.26
2022-12-15T09:47:47.868Z,1.16
2022-12-15T09:50:24.155Z,0.36
2022-12-15T09:52:57.094Z,0.72
2022-12-15T09:55:29.355Z,0.86
2022-12-15T09:58:10.605Z,0.65
2022-12-15T10:00:52.243Z,1.12
2022-12-15T10:03:41.175Z,0.70
2022-12-15T10:09:15.111Z,0.81
2022-12-15T10:11:53.040Z,0.62
2022-12-15T10:14:32.136Z,0.29
2022-12-15T10:17:12.734Z,0.10
2022-12-15T10:19:50.330Z,0.50
2022-12-15T10:22:26.841Z,0.88
2022-12-15T10:25:11.821Z,0.82
2022-12-15T10:28:13.967Z,1.06
2022-12-15T10:30:53.343Z,1.43
2022-12-15T10:33:26.150Z,1.59
2022-12-15T10:35:56.365Z,2.30
2022-12-15T10:38:34.910Z,2.23
2022-12-15T10:41:07.208Z,2.22
2022-12-15T10:43:39.709Z,1.41
2022-12-15T10:46:19.060Z,1.32
2022-12-15T10:48:50.056Z,1.34
2022-12-15T10:51:28.852Z,1.17
2022-12-15T10:54:13.131Z,1.15
2022-12-15T10:56:52.158Z,1.26
2022-12-15T10:59:30.768Z,1.27
2022-12-15T11:02:29.721Z,0.91
2022-12-15T11:05:01.264Z,1.37
2022-12-15T11:07:39.285Z,1.38
2022-12-15T11:10:21.705Z,1.13
2022-12-15T11:13:00.761Z,1.55
2022-12-15T11:15:50.582Z,1.09
2022-12-15T11:18:30.559Z,1.30
2022-12-15T11:21:07.003Z,1.71
2022-12-15T11:23:52.871Z,2.12
2022-12-15T11:26:41.373Z,2.35
2022-12-15T11:29:25.994Z,2.14
2022-12-15T11:32:01.443Z,2.20
2022-12-15T11:34:39.459Z,2.32
2022-12-15T11:37:37.082Z,2.53
2022-12-15T11:40:40.611Z,2.74
2022-12-15T11:44:04.290Z,2.98
2022-12-15T11:46:44.245Z,2.98
2022-12-15T11:49:55.556Z,3.52
2022-12-15T11:53:01.272Z,3.89
2022-12-15T11:55:45.738Z,3.73
2022-12-15T11:58:50.976Z,3.49
2022-12-15T12:01:57.018Z,3.53
2022-12-15T12:04:29.807Z,3.42
2022-12-15T12:07:09.849Z,3.20
2022-12-15T12:09:48.566Z,2.81
2022-12-15T12:12:29.901Z,2.64
2022-12-15T12:15:28.923Z,1.96
2022-12-15T12:18:08.977Z,1.70
2022-12-15T12:20:48.029Z,2.15
2022-12-15T12:23:29.014Z,2.38
2022-12-15T12:26:07.269Z,2.46
2022-12-15T12:28:48.806Z,2.28
2022-12-15T12:31:32.875Z,2.12
2022-12-15T12:34:13.387Z,2.42
2022-12-15T12:36:45.033Z,2.87
2022-12-15T12:39:24.603Z,2.87
2022-12-15T12:42:06.606Z,2.63
2022-12-15T12:44:39.549Z,1.90
2022-12-15T12:47:19.006Z,2.20
2022-12-15T12:49:55.605Z,2.21
2022-12-15T12:52:29.153Z,2.24
2022-12-15T12:55:01.525Z,2.27
2022-12-15T12:57:42.168Z,2.22
2022-12-15T13:00:21.567Z,2.25
2022-12-15T13:03:17.459Z,2.11
2022-12-15T13:05:54.562Z,2.13
2022-12-15T13:08:51.748Z,1.66
2022-12-15T13:11:58.725Z,1.72
2022-12-15T13:14:38.107Z,1.74
2022-12-15T13:17:31.017Z,1.65
2022-12-15T13:20:24.777Z,1.42
2022-12-15T13:22:57.481Z,1.38
2022-12-15T13:25:40.719Z,1.34
2022-12-15T13:28:27.125Z,1.45
2022-12-15T13:31:39.520Z,1.71
2022-12-15T13:34:28.635Z,2.04
2022-12-15T13:37:02.723Z,1.73
2022-12-15T13:39:59.214Z,2.03
2022-12-15T13:42:51.203Z,2.00
2022-12-15T13:45:42.976Z,1.69
2022-12-15T13:48:35.559Z,1.39
2022-12-15T13:51:27.294Z,1.51
2022-12-15T13:54:01.620Z,1.56
2022-12-15T13:56:56.165Z,1.29
2022-12-15T13:59:38.663Z,1.11
2022-12-15T14:02:26.702Z,1.14
2022-12-15T14:05:17.887Z,1.10
2022-12-15T14:07:54.562Z,1.19
2022-12-15T14:10:28.626Z,1.33
2022-12-15T14:13:15.949Z,1.33
2022-12-15T14:15:52.397Z,1.48
2022-12-15T14:18:32.199Z,1.54
2022-12-15T14:21:20.352Z,1.09
2022-12-15T14:24:28.782Z,1.45
2022-12-15T14:26:39.504Z,1.09
2022-12-15T14:29:13.041Z,1.20
2022-12-15T14:31:42.264Z,0.87
2022-12-15T14:34:19.735Z,0.69
2022-12-15T14:36:50.484Z,0.92
2022-12-15T14:39:25.579Z,0.95
2022-12-15T14:41:57.220Z,0.83
2022-12-15T14:44:38.065Z,0.85
2022-12-15T14:47:20.058Z,0.64
2022-12-15T14:49:51.201Z,0.62
2022-12-15T14:52:30.580Z,0.70
2022-12-15T14:55:02.296Z,0.44
2022-12-15T14:57:44.540Z,0.15
2022-12-15T15:00:32.168Z,0.11
2022-12-15T15:03:06.436Z,0.70
2022-12-15T15:05:57.339Z,0.04
2022-12-15T15:08:31.260Z,0.11
2022-12-15T15:11:06.165Z,-0.04
2022-12-15T15:13:41.786Z,-0.01
2022-12-15T15:16:20.006Z,0.17
2022-12-15T15:18:51.666Z,0.20
2022-12-15T15:21:25.348Z,0.20
2022-12-15T15:24:02.992Z,0.07
2022-12-15T15:26:32.842Z,0.00
2022-12-15T15:29:01.886Z,-0.06
2022-12-15T15:31:41.802Z,-0.11
2022-12-15T15:34:11.481Z,-0.09
2022-12-15T15:36:40.801Z,-0.12
2022-12-15T15:39:16.289Z,-0.15
2022-12-15T15:41:45.047Z,-0.27
2022-12-15T15:44:16.764Z,-0.35
2022-12-15T15:46:50.640Z,-0.45
2022-12-15T15:49:23.477Z,-0.54
2022-12-15T15:51:52.295Z,-0.63
2022-12-15T15:54:29.357Z,-0.55
2022-12-15T15:56:58.075Z,-0.48
2022-12-15T15:59:28.270Z,-0.64
2022-12-15T16:01:59.667Z,-0.65
2022-12-15T16:04:28.698Z,-0.60
2022-12-15T16:06:57.404Z,-0.57
2022-12-15T16:09:26.792Z,-0.64
2022-12-15T16:11:55.750Z,-0.66
2022-12-15T16:14:24.345Z,-0.60
2022-12-15T16:16:55.041Z,-0.62
2022-12-15T16:19:28.569Z,-0.58
2022-12-15T16:21:59.776Z,-0.37
2022-12-15T16:24:28.512Z,-0.30
2022-12-15T16:26:57.101Z,-0.20
2022-12-15T16:29:25.989Z,-0.18
2022-12-15T16:31:54.757Z,-0.26
2022-12-15T16:34:25.234Z,-0.34
2022-12-15T16:36:54.399Z,-0.36
2022-12-15T16:39:28.234Z,-0.22
2022-12-15T16:41:57.984Z,-0.22
2022-12-15T16:44:29.203Z,-0.14
2022-12-15T16:46:58.857Z,-0.10
2022-12-15T16:49:33.887Z,-0.04
2022-12-15T16:52:06.895Z,-0.10
2022-12-15T16:54:35.641Z,-0.12
2022-12-15T16:57:05.609Z,-0.23
2022-12-15T16:59:35.342Z,-0.13
2022-12-15T17:02:28.123Z,-0.07
2022-12-15T17:04:58.394Z,-0.11
2022-12-15T17:07:29.523Z,-0.18
2022-12-15T17:09:58.449Z,-0.22
2022-12-15T17:12:27.353Z,-0.22
2022-12-15T17:14:57.526Z,-0.20
2022-12-15T17:17:27.613Z,-0.16
2022-12-15T17:20:27.880Z,-0.14
2022-12-15T17:22:50.724Z,-0.29
2022-12-15T17:25:53.403Z,-0.29
2022-12-15T17:28:19.448Z,-0.28
2022-12-15T17:30:48.995Z,-0.15
2022-12-15T17:33:21.343Z,-0.14
2022-12-15T17:35:55.043Z,-0.11
2022-12-15T17:38:25.235Z,-0.21
2022-12-15T17:40:56.425Z,-0.19
2022-12-15T17:43:33.830Z,-0.26
2022-12-15T17:46:04.544Z,-0.33
2022-12-15T17:48:33.454Z,-0.28
2022-12-15T17:51:03.573Z,-0.24
2022-12-15T17:53:32.622Z,-0.14
2022-12-15T17:56:01.838Z,-0.12
2022-12-15T17:58:30.736Z,-0.11
2022-12-15T18:00:59.619Z,-0.07
2022-12-15T18:03:28.504Z,-0.03
2022-12-15T18:05:57.467Z,0.02
2022-12-15T18:08:29.528Z,-0.01
2022-12-15T18:10:59.449Z,-0.07
2022-12-15T18:13:35.370Z,-0.19
2022-12-15T18:16:04.597Z,-0.19
2022-12-15T18:18:34.940Z,-0.26
2022-12-15T18:21:15.385Z,-0.09
2022-12-15T18:23:47.542Z,-0.13
2022-12-15T18:26:16.470Z,-0.28
2022-12-15T18:28:45.284Z,-0.24
2022-12-15T18:31:24.249Z,-0.11
2022-12-15T18:33:53.618Z,-0.11
2022-12-15T18:36:25.186Z,-0.10
2022-12-15T18:38:55.224Z,-0.18
2022-12-15T18:41:23.994Z,-0.05
2022-12-15T18:43:56.279Z,-0.08
2022-12-15T18:46:24.888Z,-0.04
2022-12-15T18:48:55.721Z,-0.01
2022-12-15T18:51:24.764Z,0.00
2022-12-15T18:53:55.189Z,0.02
2022-12-15T18:56:23.938Z,0.00
2022-12-15T18:58:52.600Z,0.03
2022-12-15T19:01:21.446Z,0.07
2022-12-15T19:03:50.318Z,0.21
2022-12-15T19:06:34.878Z,0.31
2022-12-15T19:09:11.430Z,0.25
2022-12-15T19:11:40.174Z,0.25
2022-12-15T19:14:35.544Z,0.34
2022-12-15T19:17:21.717Z,0.25
2022-12-15T19:20:07.830Z,0.36
2022-12-15T19:22:37.436Z,0.38
2022-12-15T19:25:11.143Z,0.35
2022-12-15T19:27:39.684Z,0.45
2022-12-15T19:30:17.698Z,0.54
2022-12-15T19:32:46.769Z,0.44
2022-12-15T19:35:15.496Z,0.51
2022-12-15T19:37:47.251Z,0.52
2022-12-15T19:40:23.289Z,0.45
2022-12-15T19:42:53.178Z,0.52
2022-12-15T19:45:27.789Z,0.47
2022-12-15T19:47:57.337Z,0.29
2022-12-15T19:50:33.525Z,0.27
2022-12-15T19:53:06.677Z,0.41
2022-12-15T19:56:01.667Z,0.43
2022-12-15T19:58:33.250Z,0.37
2022-12-15T20:01:05.699Z,0.26
2022-12-15T20:03:35.437Z,0.36
2022-12-15T20:06:12.645Z,0.43
2022-12-15T20:08:45.617Z,0.43
2022-12-15T20:11:23.075Z,0.35
2022-12-15T20:13:53.344Z,0.33
2022-12-15T20:16:22.585Z,0.29
2022-12-15T20:18:54.645Z,0.34
2022-12-15T20:21:31.945Z,0.50
2022-12-15T20:24:07.297Z,0.29
2022-12-15T20:26:39.862Z,0.36
2022-12-15T20:29:26.070Z,0.41
2022-12-15T20:31:56.046Z,0.34
2022-12-15T20:34:25.162Z,0.37
2022-12-15T20:36:59.444Z,0.41
2022-12-15T20:39:32.364Z,0.31
2022-12-15T20:42:02.514Z,0.41
2022-12-15T20:44:35.738Z,0.53
2022-12-15T20:47:05.868Z,0.46
2022-12-15T20:49:34.556Z,0.30
2022-12-15T20:52:03.685Z,0.33
2022-12-15T20:54:32.402Z,0.22
2022-12-15T20:57:02.495Z,0.14
2022-12-15T20:59:31.646Z,0.33
2022-12-15T21:02:00.538Z,0.35
2022-12-15T21:04:32.712Z,0.32
2022-12-15T21:07:01.412Z,0.24
2022-12-15T21:09:30.079Z,0.17
2022-12-15T21:11:58.674Z,0.18
2022-12-15T21:14:29.344Z,0.18
2022-12-15T21:16:59.260Z,0.29
2022-12-15T21:19:28.230Z,0.20
2022-12-15T21:21:57.141Z,0.31
2022-12-15T21:24:29.592Z,0.22
2022-12-15T21:26:58.360Z,0.30
2022-12-15T21:29:30.138Z,0.13
2022-12-15T21:31:58.776Z,0.09
2022-12-15T21:34:27.733Z,0.08
2022-12-15T21:36:57.819Z,0.08
2022-12-15T21:39:31.052Z,-0.06
2022-12-15T21:42:03.997Z,-0.04
2022-12-15T21:44:33.995Z,0.03
2022-12-15T21:47:02.576Z,-0.08
2022-12-15T21:49:30.198Z,-0.04
2022-12-15T21:52:02.025Z,-0.02
2022-12-15T21:54:35.866Z,-0.01
2022-12-15T21:57:04.894Z,-0.09
2022-12-15T21:59:35.354Z,-0.09
2022-12-15T22:02:25.624Z,-0.17
2022-12-15T22:04:54.768Z,0.03
2022-12-15T22:07:23.625Z,-0.06
2022-12-15T22:09:52.426Z,-0.12
2022-12-15T22:12:24.942Z,-0.19
2022-12-15T22:14:55.024Z,-0.22
2022-12-15T22:17:24.997Z,-0.05
2022-12-15T22:19:54.234Z,-0.08
2022-12-15T22:22:26.957Z,0.03
2022-12-15T22:24:59.084Z,0.03
2022-12-15T22:27:28.489Z,-0.13
2022-12-15T22:29:59.500Z,-0.20
2022-12-15T22:32:28.369Z,-0.13
2022-12-15T22:34:57.123Z,-0.40
2022-12-15T22:37:25.838Z,-0.23
2022-12-15T22:39:54.412Z,-0.11
2022-12-15T22:42:23.462Z,-0.18
2022-12-15T22:44:59.098Z,-0.33
2022-12-15T22:47:28.142Z,-0.20
2022-12-15T22:49:56.868Z,-0.27
2022-12-15T22:52:25.410Z,-0.26
2022-12-15T22:54:54.928Z,-0.18
2022-12-15T22:57:26.932Z,-0.41
2022-12-15T23:00:03.083Z,-0.29
2022-12-15T23:02:38.049Z,-0.26
2022-12-15T23:05:07.901Z,-0.38
2022-12-15T23:07:36.902Z,-0.30
2022-12-15T23:10:24.364Z,-0.31
2022-12-15T23:12:54.516Z,-0.45
2022-12-15T23:15:45.729Z,-0.39
2022-12-15T23:18:15.054Z,-0.28
2022-12-15T23:20:44.453Z,-0.42
2022-12-15T23:23:13.075Z,-0.31
2022-12-15T23:25:41.870Z,-0.37
2022-12-15T23:28:10.653Z,-0.42
2022-12-15T23:30:40.735Z,-0.43
2022-12-15T23:33:09.247Z,-0.49
2022-12-15T23:35:41.188Z,-0.52
2022-12-15T23:38:09.757Z,-0.52
2022-12-15T23:40:38.537Z,-0.33
2022-12-15T23:43:07.159Z,-0.41
2022-12-15T23:45:35.730Z,-0.42
2022-12-15T23:48:07.485Z,-0.51
2022-12-15T23:50:36.772Z,-0.37
2022-12-15T23:53:08.109Z,-0.37
2022-12-15T23:55:37.393Z,-0.50
2022-12-15T23:58:06.010Z,-0.33
